Time;durP1;ratioP1;P1;durP2;ratioP2;P2;SDS_P1;SDS_P2;PMS_P1;PMS_P2;Temp;Humidity;BMP_temperature;BMP_pressure;BME280_temperature;BME280_humidity;BME280_pressure;Samples;Min_cycle;Max_cycle;Signal;HPM_P1;HPM_P2
2023/09/15 00:00:25;;;;;;;2.23;1.60;;;9.90;99.90;9.90;101252.00;;;;4991016;27;92851;-68
2023/09/15 00:02:55;;;;;;;0.97;0.93;;;9.90;99.90;9.90;101251.00;;;;4973474;27;94166;-68
2023/09/15 00:05:21;;;;;;;2.87;1.23;;;9.90;99.90;9.90;101250.00;;;;4973027;28;93265;-68
2023/09/15 00:07:47;;;;;;;2.80;1.57;;;10.00;99.90;9.90;101252.00;;;;4986373;27;93883;-69
2023/09/15 00:10:14;;;;;;;1.37;1.03;;;9.90;99.90;9.90;101252.00;;;;4989521;27;108991;-68
2023/09/15 00:12:45;;;;;;;1.80;1.10;;;9.90;99.90;9.90;101258.00;;;;4990518;27;92455;-67
2023/09/15 00:15:12;;;;;;;2.57;1.50;;;9.90;99.90;9.90;101251.00;;;;4981414;27;93915;-70
2023/09/15 00:17:40;;;;;;;0.77;0.77;;;9.90;99.90;9.80;101255.00;;;;4974290;27;94413;-68
2023/09/15 00:20:13;;;;;;;1.43;0.90;;;9.90;99.90;9.80;101256.00;;;;4988272;27;94124;-67
2023/09/15 00:22:52;;;;;;;1.03;0.93;;;9.90;99.90;9.80;101257.00;;;;4986692;27;93062;-67
2023/09/15 00:25:20;;;;;;;0.97;0.87;;;9.90;99.90;9.80;101252.00;;;;4985170;27;94194;-67
2023/09/15 00:27:48;;;;;;;1.17;0.90;;;9.90;99.90;9.70;101249.00;;;;4988821;27;93430;-68
2023/09/15 00:30:16;;;;;;;1.87;1.20;;;9.80;99.90;9.70;101252.00;;;;4987181;27;93077;-67
2023/09/15 00:32:42;;;;;;;4.67;1.57;;;9.80;99.90;9.60;101255.00;;;;4989066;27;93292;-67
2023/09/15 00:35:08;;;;;;;1.73;1.30;;;9.70;99.90;9.60;101260.00;;;;4988439;28;94384;-67
2023/09/15 00:37:34;;;;;;;1.07;0.93;;;9.70;99.90;9.50;101262.00;;;;4984223;28;122970;-67
2023/09/15 00:39:59;;;;;;;1.63;1.00;;;9.60;99.90;9.40;101263.00;;;;4983513;28;110186;-68
2023/09/15 00:42:25;;;;;;;1.20;1.10;;;9.50;99.90;9.40;101262.00;;;;4985920;27;92927;-67
2023/09/15 00:44:51;;;;;;;0.97;0.90;;;9.50;99.90;9.30;101260.00;;;;4984138;27;123315;-67
2023/09/15 00:47:17;;;;;;;0.97;0.87;;;9.40;99.90;9.20;101256.00;;;;4954153;28;122729;-66
2023/09/15 00:49:47;;;;;;;2.00;0.90;;;9.30;99.90;9.20;101250.00;;;;4985812;27;110446;-67
2023/09/15 00:52:13;;;;;;;0.97;0.90;;;9.30;99.90;9.10;101254.00;;;;4977458;27;109861;-68
2023/09/15 00:54:40;;;;;;;1.77;1.03;;;9.20;99.90;9.10;101257.00;;;;4983092;27;121776;-67
2023/09/15 00:57:06;;;;;;;0.93;0.73;;;9.20;99.90;9.10;101253.00;;;;4988280;27;94150;-67
2023/09/15 00:59:33;;;;;;;1.00;1.00;;;9.20;99.90;9.10;101240.00;;;;4971287;28;108821;-67
2023/09/15 01:02:00;;;;;;;1.07;0.97;;;9.20;99.90;9.10;101243.00;;;;4985772;27;101257;-68
2023/09/15 01:04:27;;;;;;;1.03;0.93;;;9.10;99.90;9.00;101247.00;;;;4985101;27;94370;-70
2023/09/15 01:06:55;;;;;;;1.10;0.90;;;9.10;99.90;9.00;101247.00;;;;4967329;28;93236;-67
2023/09/15 01:09:22;;;;;;;1.43;1.00;;;9.00;99.90;9.00;101250.00;;;;4986632;28;94357;-67
2023/09/15 01:11:50;;;;;;;1.07;0.90;;;9.10;99.90;9.00;101250.00;;;;4990100;28;92965;-67
2023/09/15 01:14:16;;;;;;;1.20;1.10;;;9.10;99.90;9.00;101242.00;;;;4984271;28;94097;-67
2023/09/15 01:17:21;;;;;;;1.93;1.07;;;9.10;99.90;8.90;101239.00;;;;4985772;27;93999;-67
2023/09/15 01:20:13;;;;;;;1.00;0.90;;;9.30;99.90;8.90;101246.00;;;;4963897;28;103218;-67
2023/09/15 01:23:11;;;;;;;1.80;1.20;;;9.00;99.90;8.90;101241.00;;;;4975167;28;92927;-69
2023/09/15 01:26:20;;;;;;;0.77;0.77;;;9.00;99.90;8.80;101241.00;;;;4964357;28;93870;-67
2023/09/15 01:29:19;;;;;;;0.80;0.80;;;9.00;99.90;8.70;101240.00;;;;4985168;27;92893;-70
2023/09/15 01:31:47;;;;;;;2.30;1.07;;;8.90;99.90;8.80;101234.00;;;;4987063;27;93095;-67
2023/09/15 01:34:16;;;;;;;0.80;0.80;;;8.90;99.90;8.80;101235.00;;;;4986117;27;93176;-67
2023/09/15 01:36:44;;;;;;;1.10;1.00;;;8.90;99.90;8.80;101243.00;;;;4988572;27;95044;-67
2023/09/15 01:39:10;;;;;;;1.23;1.13;;;8.90;99.90;8.80;101248.00;;;;4986951;27;94955;-67
2023/09/15 01:41:36;;;;;;;2.43;1.20;;;8.90;99.90;8.70;101237.00;;;;4990444;28;92984;-67
2023/09/15 01:44:03;;;;;;;1.30;1.20;;;8.80;99.90;8.70;101236.00;;;;4984984;28;103316;-67
2023/09/15 01:46:34;;;;;;;2.33;1.30;;;8.80;99.90;8.60;101239.00;;;;4991398;27;92731;-67
2023/09/15 01:49:01;;;;;;;1.20;1.00;;;8.80;99.90;8.60;101234.00;;;;4991415;28;93235;-67
2023/09/15 01:51:27;;;;;;;2.13;1.23;;;8.70;99.90;8.60;101244.00;;;;4987817;28;92691;-67
2023/09/15 01:53:53;;;;;;;1.10;1.00;;;8.70;99.90;8.50;101233.00;;;;4987739;28;92011;-68
2023/09/15 01:56:21;;;;;;;2.20;1.03;;;8.60;99.90;8.50;101242.00;;;;4968721;27;93527;-68
2023/09/15 01:58:46;;;;;;;2.67;1.53;;;8.60;99.90;8.40;101242.00;;;;4987589;27;94333;-67
2023/09/15 02:01:12;;;;;;;2.10;1.50;;;8.60;99.90;8.40;101241.00;;;;4983978;27;110361;-68
2023/09/15 02:03:38;;;;;;;1.00;0.90;;;8.50;99.90;8.40;101239.00;;;;4969975;28;93326;-68
2023/09/15 02:06:04;;;;;;;0.90;0.80;;;8.50;99.90;8.40;101241.00;;;;4987014;27;109475;-68
2023/09/15 02:08:31;;;;;;;1.07;0.70;;;8.50;99.90;8.40;101233.00;;;;4990415;27;93559;-68
2023/09/15 02:10:57;;;;;;;1.87;0.80;;;8.50;99.90;8.40;101247.00;;;;4992268;27;92917;-68
2023/09/15 02:13:22;;;;;;;1.97;1.10;;;8.50;99.90;8.40;101239.00;;;;4990997;28;106811;-67
2023/09/15 02:15:53;;;;;;;9.20;1.57;;;8.50;99.90;8.40;101231.00;;;;4989285;27;123166;-68
2023/09/15 02:18:18;;;;;;;2.23;2.03;;;8.50;99.90;8.30;101238.00;;;;4991489;28;93428;-67
2023/09/15 02:20:52;;;;;;;2.00;1.13;;;8.50;99.90;8.30;101244.00;;;;4992197;27;105229;-68
2023/09/15 02:23:18;;;;;;;2.20;1.40;;;8.40;99.90;8.30;101240.00;;;;4986655;27;93632;-68
2023/09/15 02:25:44;;;;;;;1.13;1.00;;;8.40;99.90;8.30;101234.00;;;;4967951;28;122227;-67
2023/09/15 02:28:09;;;;;;;2.73;1.47;;;8.40;99.90;8.30;101235.00;;;;4971378;28;123397;-68
2023/09/15 02:30:37;;;;;;;2.40;1.37;;;8.60;99.90;8.30;101237.00;;;;4971186;28;110376;-67
2023/09/15 02:33:03;;;;;;;1.97;1.53;;;8.40;99.90;8.30;101239.00;;;;4970603;28;93145;-68
2023/09/15 02:35:29;;;;;;;2.23;1.37;;;8.40;99.90;8.30;101239.00;;;;4970869;28;124108;-67
2023/09/15 02:37:55;;;;;;;1.90;1.20;;;8.40;99.90;8.20;101238.00;;;;4970108;28;93760;-67
2023/09/15 02:40:24;;;;;;;2.60;1.43;;;8.30;99.90;8.20;101237.00;;;;4966450;28;110390;-67
2023/09/15 02:42:50;;;;;;;1.40;1.23;;;8.30;99.90;8.20;101239.00;;;;4949658;28;92522;-67
2023/09/15 02:45:16;;;;;;;2.20;1.13;;;8.30;99.90;8.10;101240.00;;;;4969030;28;93344;-67
2023/09/15 02:47:42;;;;;;;0.70;0.70;;;8.20;99.90;8.10;101248.00;;;;4971099;28;109155;-68
2023/09/15 02:50:11;;;;;;;1.27;1.17;;;8.20;99.90;8.00;101239.00;;;;4970954;28;110023;-67
2023/09/15 02:52:36;;;;;;;0.80;0.77;;;8.20;99.90;8.00;101237.00;;;;4967964;28;107713;-67
2023/09/15 02:55:04;;;;;;;0.70;0.70;;;8.10;99.90;8.00;101231.00;;;;4968908;28;93196;-68
2023/09/15 02:57:30;;;;;;;1.00;0.83;;;8.10;99.90;8.00;101234.00;;;;4952093;28;95014;-67
2023/09/15 02:59:56;;;;;;;1.00;1.00;;;8.10;99.90;7.90;101228.00;;;;4970153;28;109964;-68
2023/09/15 03:02:21;;;;;;;1.63;1.13;;;8.20;99.90;7.90;101228.00;;;;4969277;28;109093;-67
2023/09/15 03:04:48;;;;;;;1.53;1.30;;;8.00;99.90;7.90;101226.00;;;;4969034;28;94029;-68
2023/09/15 03:07:14;;;;;;;1.20;1.10;;;8.20;99.90;7.80;101235.00;;;;4955050;28;93044;-68
2023/09/15 03:09:40;;;;;;;1.30;0.80;;;7.90;99.90;7.80;101233.00;;;;4967594;28;92918;-68
2023/09/15 03:12:05;;;;;;;0.70;0.70;;;8.10;99.90;7.80;101221.00;;;;4968082;28;109596;-67
2023/09/15 03:14:32;;;;;;;3.43;1.07;;;7.90;99.90;7.80;101228.00;;;;4968531;28;124232;-67
2023/09/15 03:16:58;;;;;;;1.37;1.13;;;7.90;99.90;7.80;101219.00;;;;4967008;28;95706;-68
2023/09/15 03:19:24;;;;;;;1.40;1.00;;;7.90;99.90;7.80;101216.00;;;;4967117;28;92899;-67
2023/09/15 03:21:50;;;;;;;1.00;0.90;;;7.90;99.90;7.80;101218.00;;;;4948427;28;93084;-67
2023/09/15 03:24:16;;;;;;;1.53;1.03;;;7.90;99.90;7.70;101218.00;;;;4979894;28;113554;-67
2023/09/15 03:26:42;;;;;;;1.83;1.37;;;7.90;99.90;7.70;101224.00;;;;4992350;28;93285;-67
2023/09/15 03:29:08;;;;;;;1.00;0.87;;;8.20;99.90;7.70;101224.00;;;;4988791;28;94206;-68
2023/09/15 03:31:34;;;;;;;3.27;1.27;;;7.80;99.90;7.60;101222.00;;;;4987483;27;108348;-68
2023/09/15 03:34:00;;;;;;;1.90;0.83;;;8.00;99.90;7.60;101223.00;;;;4988288;28;121644;-68
2023/09/15 03:36:29;;;;;;;1.37;0.97;;;7.70;99.90;7.60;101224.00;;;;4986705;27;123327;-68
2023/09/15 03:38:56;;;;;;;1.10;0.87;;;7.70;99.90;7.60;101226.00;;;;4992130;28;94024;-68
2023/09/15 03:41:24;;;;;;;1.43;1.33;;;7.70;99.90;7.50;101214.00;;;;4991350;28;93154;-67
2023/09/15 03:43:53;;;;;;;1.93;1.67;;;7.70;99.90;7.50;101208.00;;;;4992527;27;93647;-68
2023/09/15 03:46:19;;;;;;;1.00;1.00;;;8.00;99.90;7.50;101207.00;;;;4992501;27;93243;-69
2023/09/15 03:48:44;;;;;;;1.47;1.20;;;7.60;99.90;7.40;101223.00;;;;4989714;27;109295;-68
2023/09/15 03:51:10;;;;;;;1.60;0.87;;;7.70;99.90;7.40;101215.00;;;;4987659;27;109431;-68
2023/09/15 03:53:36;;;;;;;1.03;0.77;;;7.50;99.90;7.40;101215.00;;;;4990133;27;120745;-68
2023/09/15 03:56:03;;;;;;;1.20;1.10;;;7.50;99.90;7.40;101208.00;;;;4988529;27;93872;-67
2023/09/15 03:58:29;;;;;;;1.53;1.03;;;7.50;99.90;7.30;101210.00;;;;4991555;27;92954;-67
2023/09/15 04:00:54;;;;;;;0.77;0.77;;;7.80;99.90;7.30;101208.00;;;;4991338;28;92845;-67
2023/09/15 04:03:23;;;;;;;1.40;1.30;;;7.70;99.90;7.30;101211.00;;;;4988816;27;94999;-67
2023/09/15 04:05:49;;;;;;;1.77;1.10;;;7.40;99.90;7.30;101204.00;;;;4989195;28;93907;-65
2023/09/15 04:08:14;;;;;;;1.07;0.97;;;7.70;99.90;7.30;101212.00;;;;4988176;27;93122;-68
2023/09/15 04:10:41;;;;;;;1.80;1.47;;;7.40;99.90;7.20;101210.00;;;;4987247;28;108157;-67
2023/09/15 04:13:06;;;;;;;2.07;1.50;;;7.40;99.90;7.20;101210.00;;;;4990875;27;93802;-68
2023/09/15 04:15:32;;;;;;;2.20;1.87;;;7.30;99.90;7.20;101207.00;;;;4988013;28;109678;-67
2023/09/15 04:17:58;;;;;;;1.10;0.90;;;7.30;99.90;7.20;101208.00;;;;4989011;27;110854;-68
2023/09/15 04:20:23;;;;;;;1.00;1.00;;;7.30;99.90;7.20;101213.00;;;;4971624;27;92350;-68
2023/09/15 04:22:49;;;;;;;2.83;1.83;;;7.70;99.90;7.20;101223.00;;;;4988767;27;93715;-67
2023/09/15 04:25:16;;;;;;;2.80;1.27;;;7.30;99.90;7.20;101210.00;;;;4985418;27;119249;-67
2023/09/15 04:27:42;;;;;;;0.93;0.93;;;7.30;99.90;7.20;101218.00;;;;4987941;27;94222;-67
2023/09/15 04:30:08;;;;;;;2.23;1.10;;;7.30;99.90;7.10;101226.00;;;;4990945;27;104741;-67
2023/09/15 04:32:34;;;;;;;1.33;1.17;;;7.30;99.90;7.10;101223.00;;;;4988403;28;93280;-67
2023/09/15 04:35:00;;;;;;;2.63;1.80;;;7.20;99.90;7.10;101213.00;;;;4986774;27;123039;-67
2023/09/15 04:37:25;;;;;;;2.40;1.60;;;7.50;99.90;7.10;101221.00;;;;4988240;27;109998;-67
2023/09/15 04:39:51;;;;;;;1.87;1.50;;;7.50;99.90;7.10;101222.00;;;;4988549;27;104836;-67
2023/09/15 04:42:17;;;;;;;1.80;1.67;;;7.20;99.90;7.10;101223.00;;;;4990236;27;93389;-66
2023/09/15 04:44:43;;;;;;;1.10;1.00;;;7.30;99.90;7.00;101220.00;;;;4991072;27;111513;-66
2023/09/15 04:47:10;;;;;;;1.97;1.60;;;7.20;99.90;7.10;101222.00;;;;4989422;27;110159;-67
2023/09/15 04:49:36;;;;;;;1.20;1.10;;;7.20;99.90;7.00;101215.00;;;;4985785;27;93011;-69
2023/09/15 04:52:01;;;;;;;2.00;1.50;;;7.20;99.90;7.00;101213.00;;;;4986164;27;123177;-66
2023/09/15 04:54:28;;;;;;;1.27;1.17;;;7.20;99.90;7.10;101223.00;;;;4990543;27;123684;-66
2023/09/15 04:56:54;;;;;;;1.50;1.33;;;7.20;99.90;7.10;101218.00;;;;4987710;27;92840;-66
2023/09/15 04:59:20;;;;;;;1.63;1.53;;;7.20;99.90;7.10;101226.00;;;;4982159;27;94580;-66
2023/09/15 05:01:46;;;;;;;2.03;1.57;;;7.30;99.90;7.10;101221.00;;;;4984101;27;94328;-66
2023/09/15 05:04:18;;;;;;;2.73;1.50;;;7.20;99.90;7.10;101222.00;;;;4984612;27;93014;-66
2023/09/15 05:06:44;;;;;;;1.23;1.13;;;7.20;99.90;7.20;101218.00;;;;4984736;27;93082;-66
2023/09/15 05:09:10;;;;;;;2.07;1.63;;;7.30;99.90;7.20;101214.00;;;;4981799;27;108371;-66
2023/09/15 05:11:39;;;;;;;1.30;1.20;;;7.60;99.90;7.30;101218.00;;;;4967288;27;121965;-66
2023/09/15 05:14:05;;;;;;;1.67;1.17;;;7.50;99.90;7.30;101218.00;;;;4966325;27;120090;-67
2023/09/15 05:16:32;;;;;;;1.03;0.83;;;7.50;99.90;7.40;101228.00;;;;4984674;27;95119;-67
2023/09/15 05:18:58;;;;;;;2.50;1.60;;;7.40;99.90;7.50;101227.00;;;;4964427;27;93481;-66
2023/09/15 05:21:24;;;;;;;4.83;1.83;;;7.50;99.90;7.60;101232.00;;;;4983699;27;99506;-66
2023/09/15 05:23:49;;;;;;;2.77;1.60;;;7.60;99.90;7.70;101226.00;;;;4982744;27;121783;-66
2023/09/15 05:26:15;;;;;;;1.07;0.97;;;8.00;99.90;7.80;101228.00;;;;4985314;27;110526;-66
2023/09/15 05:28:41;;;;;;;1.60;1.37;;;7.90;99.90;8.00;101220.00;;;;4983068;27;109013;-66
2023/09/15 05:31:07;;;;;;;1.77;1.50;;;8.00;99.90;8.10;101232.00;;;;4984228;28;94512;-66
2023/09/15 05:33:33;;;;;;;1.60;1.17;;;8.10;99.90;8.30;101225.00;;;;4987773;27;92295;-67
2023/09/15 05:36:00;;;;;;;2.17;0.80;;;8.30;99.90;8.50;101229.00;;;;4986267;27;93032;-67
2023/09/15 05:38:26;;;;;;;1.93;1.53;;;8.50;99.90;8.60;101224.00;;;;4992809;28;92634;-67
2023/09/15 05:40:52;;;;;;;1.73;1.63;;;8.60;99.90;8.80;101234.00;;;;4990532;27;114318;-66
2023/09/15 05:43:20;;;;;;;2.40;1.57;;;8.80;99.90;9.10;101234.00;;;;4992133;27;123610;-66
2023/09/15 05:45:46;;;;;;;1.80;1.70;;;9.00;99.90;9.30;101234.00;;;;4994563;28;92986;-67
2023/09/15 05:48:17;;;;;;;2.83;1.90;;;9.20;99.90;9.60;101235.00;;;;4969751;28;93069;-67
2023/09/15 05:50:44;;;;;;;1.97;1.20;;;9.50;99.90;9.80;101229.00;;;;4991352;27;93661;-65
2023/09/15 05:53:10;;;;;;;1.70;1.33;;;9.70;99.90;10.00;101230.00;;;;4991171;27;99242;-65
2023/09/15 05:55:35;;;;;;;2.93;1.53;;;10.00;99.90;10.30;101238.00;;;;4994642;27;93109;-67
2023/09/15 05:58:01;;;;;;;1.97;1.83;;;10.20;99.90;10.60;101245.00;;;;4993419;27;109830;-66
2023/09/15 06:00:27;;;;;;;2.03;0.90;;;10.50;99.90;10.80;101257.00;;;;4989961;27;94099;-65
2023/09/15 06:02:52;;;;;;;1.77;1.67;;;10.70;99.90;11.10;101255.00;;;;4992413;27;122807;-66
2023/09/15 06:05:20;;;;;;;4.37;1.47;;;11.00;99.90;11.30;101241.00;;;;4990385;27;111281;-67
2023/09/15 06:07:49;;;;;;;1.70;1.43;;;11.20;99.90;11.60;101245.00;;;;4991808;27;93209;-68
2023/09/15 06:10:15;;;;;;;1.97;1.40;;;11.50;99.90;11.90;101257.00;;;;4989518;28;93413;-68
2023/09/15 06:12:41;;;;;;;1.30;1.20;;;11.70;99.90;12.10;101251.00;;;;4993050;27;112326;-67
2023/09/15 06:15:07;;;;;;;3.77;1.20;;;12.00;99.90;12.30;101253.00;;;;4992555;27;111533;-67
2023/09/15 06:17:34;;;;;;;2.83;1.40;;;12.20;99.90;12.50;101243.00;;;;4991110;28;93964;-67
2023/09/15 06:20:00;;;;;;;4.70;1.97;;;12.40;99.90;12.70;101241.00;;;;4989823;27;94007;-67
2023/09/15 06:22:26;;;;;;;2.73;1.43;;;12.60;99.90;13.00;101253.00;;;;4992569;27;99175;-67
2023/09/15 06:24:52;;;;;;;2.17;1.87;;;12.80;99.90;13.30;101249.00;;;;4992700;27;93001;-65
2023/09/15 06:27:18;;;;;;;1.70;1.57;;;13.10;99.90;13.60;101252.00;;;;4990650;27;93220;-66
2023/09/15 06:29:44;;;;;;;1.27;1.17;;;13.40;99.90;13.90;101252.00;;;;4991510;28;94668;-66
2023/09/15 06:32:10;;;;;;;1.80;1.63;;;13.70;99.90;14.20;101255.00;;;;4990569;27;123482;-66
2023/09/15 06:34:36;;;;;;;4.73;1.90;;;13.90;99.90;14.40;101248.00;;;;4989019;28;110047;-66
2023/09/15 06:37:01;;;;;;;2.37;1.77;;;14.20;99.90;14.70;101246.00;;;;4989240;27;92983;-66
2023/09/15 06:39:28;;;;;;;2.27;1.77;;;14.50;99.90;15.00;101261.00;;;;4988904;27;124456;-66
2023/09/15 06:41:54;;;;;;;1.43;1.33;;;14.80;99.90;15.30;101260.00;;;;4990564;27;94151;-67
2023/09/15 06:44:20;;;;;;;4.13;1.97;;;15.10;99.90;15.60;101257.00;;;;4989031;28;108291;-66
2023/09/15 06:46:46;;;;;;;2.33;1.43;;;15.30;99.90;15.90;101255.00;;;;4989965;27;91936;-67
2023/09/15 06:49:12;;;;;;;2.10;1.83;;;15.60;99.90;16.20;101256.00;;;;4988562;28;93506;-67
2023/09/15 06:51:38;;;;;;;2.63;1.38;;;16.00;99.90;16.60;101259.00;;;;4991857;27;92860;-66
2023/09/15 06:54:04;;;;;;;3.42;1.30;;;16.30;99.90;16.80;101248.00;;;;4987967;27;93845;-66
2023/09/15 06:56:30;;;;;;;1.38;1.27;;;16.60;99.90;17.00;101253.00;;;;4991519;28;93015;-66
2023/09/15 06:58:55;;;;;;;1.83;1.27;;;16.80;99.90;17.30;101241.00;;;;4992016;28;111199;-66
2023/09/15 07:01:21;;;;;;;1.75;1.55;;;17.00;99.90;17.60;101246.00;;;;4988482;28;122039;-66
2023/09/15 07:03:47;;;;;;;2.45;1.90;;;17.30;99.90;17.80;101247.00;;;;4991570;28;111623;-65
2023/09/15 07:06:13;;;;;;;1.92;1.40;;;17.50;99.90;18.00;101243.00;;;;4988238;28;108219;-66
2023/09/15 07:08:39;;;;;;;1.88;1.10;;;17.80;99.90;18.20;101244.00;;;;4986768;27;94269;-66
2023/09/15 07:11:05;;;;;;;1.55;1.42;;;18.00;99.90;18.50;101250.00;;;;4988685;27;116622;-66
2023/09/15 07:13:31;;;;;;;1.80;1.10;;;18.30;99.90;18.70;101248.00;;;;4989530;28;108223;-67
2023/09/15 07:15:57;;;;;;;1.52;1.30;;;18.50;99.90;19.00;101246.00;;;;4988608;27;108650;-67
2023/09/15 07:18:23;;;;;;;2.20;0.90;;;18.70;99.90;19.30;101256.00;;;;4989316;28;94894;-66
2023/09/15 07:20:49;;;;;;;4.05;0.90;;;19.00;99.90;19.60;101252.00;;;;4989347;28;94472;-66
2023/09/15 07:23:15;;;;;;;2.35;1.73;;;19.30;99.30;19.90;101249.00;;;;4990177;27;100082;-66
2023/09/15 07:25:45;;;;;;;2.58;1.17;;;19.70;98.50;20.20;101261.00;;;;4989907;28;92794;-67
2023/09/15 07:28:11;;;;;;;3.75;1.02;;;19.90;97.60;20.50;101257.00;;;;4987425;27;92968;-67
2023/09/15 07:30:37;;;;;;;1.23;0.85;;;20.20;97.50;20.80;101257.00;;;;4977935;28;92747;-66
2023/09/15 07:33:03;;;;;;;1.20;0.82;;;20.50;97.00;21.10;101259.00;;;;4984019;27;110557;-66
2023/09/15 07:35:29;;;;;;;2.05;0.93;;;20.80;96.50;21.40;101256.00;;;;4989478;28;92505;-67
2023/09/15 07:37:55;;;;;;;1.20;1.00;;;21.10;96.20;21.60;101258.00;;;;4989614;28;113473;-66
2023/09/15 07:40:22;;;;;;;1.75;1.00;;;21.40;94.40;21.80;101258.00;;;;4989053;27;102702;-66
2023/09/15 07:42:48;;;;;;;2.75;1.13;;;21.60;94.20;22.10;101263.00;;;;4987542;28;94199;-66
2023/09/15 07:45:14;;;;;;;4.30;1.30;;;21.80;93.10;22.30;101256.00;;;;4989198;27;108230;-67
2023/09/15 07:47:40;;;;;;;1.50;1.25;;;22.00;92.70;22.50;101249.00;;;;4988132;28;110496;-67
2023/09/15 07:50:06;;;;;;;0.85;0.75;;;22.20;91.20;22.50;101257.00;;;;4986224;27;121789;-67
2023/09/15 07:52:33;;;;;;;1.63;1.52;;;22.40;90.00;22.50;101253.00;;;;4988877;27;93154;-65
2023/09/15 07:54:59;;;;;;;0.77;0.63;;;22.30;90.00;22.50;101249.00;;;;4990631;28;93864;-66
2023/09/15 07:57:24;;;;;;;1.30;0.88;;;22.40;89.30;22.60;101252.00;;;;4986720;28;122146;-65
2023/09/15 07:59:50;;;;;;;1.90;0.88;;;22.40;87.50;22.60;101244.00;;;;4988492;27;123307;-65
2023/09/15 08:02:16;;;;;;;2.65;1.00;;;22.40;87.60;22.70;101252.00;;;;4989460;28;109682;-66
2023/09/15 08:04:42;;;;;;;2.17;1.00;;;22.50;88.10;22.90;101249.00;;;;4988053;27;106209;-67
2023/09/15 08:07:08;;;;;;;1.00;0.93;;;22.70;87.50;23.10;101243.00;;;;4987556;27;94420;-67
2023/09/15 08:09:33;;;;;;;1.77;1.05;;;22.80;86.90;23.30;101251.00;;;;4985765;27;115374;-66
2023/09/15 08:12:00;;;;;;;1.33;0.88;;;23.00;85.90;23.50;101252.00;;;;4989515;28;110978;-67
2023/09/15 08:14:26;;;;;;;1.85;0.73;;;23.20;84.20;23.70;101244.00;;;;4990184;28;92906;-67
2023/09/15 08:16:52;;;;;;;0.63;0.63;;;23.40;83.60;23.90;101241.00;;;;4988033;27;115121;-67
2023/09/15 08:19:19;;;;;;;1.13;0.75;;;23.60;83.10;24.10;101240.00;;;;4989720;27;121562;-67
2023/09/15 08:21:45;;;;;;;1.65;0.93;;;23.80;83.20;24.50;101242.00;;;;4991353;28;92775;-68
2023/09/15 08:24:11;;;;;;;2.60;0.90;;;24.10;79.40;24.60;101246.00;;;;4990785;27;108656;-66
2023/09/15 08:26:37;;;;;;;2.60;1.25;;;24.30;76.20;24.60;101238.00;;;;4993440;27;122511;-66
2023/09/15 08:29:04;;;;;;;0.80;0.60;;;24.30;76.20;24.70;101238.00;;;;4974569;27;93117;-67
2023/09/15 08:31:33;;;;;;;1.42;0.50;;;24.40;75.40;24.90;101237.00;;;;4992944;27;96877;-66
2023/09/15 08:33:58;;;;;;;1.20;0.68;;;24.60;75.40;25.30;101234.00;;;;4986361;27;100493;-66
2023/09/15 08:36:26;;;;;;;0.30;0.30;;;24.90;70.90;25.20;101229.00;;;;4990033;27;121776;-67
2023/09/15 08:38:52;;;;;;;1.55;0.52;;;24.90;71.80;25.40;101240.00;;;;4988875;27;93697;-67
2023/09/15 08:41:33;;;;;;;3.50;1.10;;;25.00;69.00;25.30;101233.00;;;;4989871;27;94879;-67
2023/09/15 08:43:59;;;;;;;1.30;1.00;;;25.00;68.70;25.40;101223.00;;;;4993841;27;92963;-66
2023/09/15 08:46:30;;;;;;;0.95;0.70;;;25.10;67.00;25.40;101235.00;;;;4992482;27;93938;-67
2023/09/15 08:48:58;;;;;;;0.50;0.35;;;25.10;68.20;25.60;101230.00;;;;4989003;27;93300;-67
2023/09/15 08:51:25;;;;;;;1.77;0.95;;;25.20;66.50;25.60;101230.00;;;;4987797;28;92865;-67
2023/09/15 08:53:56;;;;;;;1.67;0.70;;;25.30;65.40;25.60;101232.00;;;;4991614;27;97146;-67
2023/09/15 08:56:23;;;;;;;0.60;0.50;;;25.30;66.00;25.80;101232.00;;;;4991269;28;93984;-67
2023/09/15 08:58:49;;;;;;;1.80;0.90;;;25.40;65.50;26.00;101236.00;;;;4972934;28;115030;-67
2023/09/15 09:01:18;;;;;;;0.68;0.63;;;25.60;65.10;26.20;101231.00;;;;4991282;27;111520;-68
2023/09/15 09:03:44;;;;;;;2.28;0.77;;;25.80;63.80;26.50;101222.00;;;;4975049;28;92908;-67
2023/09/15 09:06:12;;;;;;;2.55;0.65;;;26.00;63.80;26.70;101233.00;;;;4986652;27;121407;-67
2023/09/15 09:08:42;;;;;;;0.70;0.55;;;26.20;61.70;26.80;101237.00;;;;4975498;27;93597;-67
2023/09/15 09:11:08;;;;;;;0.95;0.47;;;26.40;61.00;26.80;101229.00;;;;4986088;28;92901;-67
2023/09/15 09:13:34;;;;;;;1.13;0.55;;;26.40;59.30;26.80;101238.00;;;;4977306;28;92440;-67
2023/09/15 09:16:05;;;;;;;0.77;0.52;;;26.50;59.50;26.90;101227.00;;;;4988795;27;122843;-67
2023/09/15 09:18:31;;;;;;;0.43;0.40;;;26.60;59.00;26.90;101226.00;;;;4995706;27;94686;-67
2023/09/15 09:20:57;;;;;;;0.57;0.40;;;26.60;59.00;27.10;101230.00;;;;4996289;27;102671;-67
2023/09/15 09:23:23;;;;;;;1.67;1.05;;;26.70;56.70;27.30;101232.00;;;;4990951;28;107900;-66
2023/09/15 09:25:49;;;;;;;0.60;0.50;;;26.70;56.60;27.10;101236.00;;;;4992763;27;93748;-67
2023/09/15 09:28:16;;;;;;;1.55;0.68;;;26.70;55.70;27.00;101232.00;;;;4988187;27;113137;-66
2023/09/15 09:30:42;;;;;;;0.98;0.55;;;26.60;55.90;27.20;101229.00;;;;4993412;27;92903;-68
2023/09/15 09:33:12;;;;;;;1.52;0.75;;;26.70;56.30;27.50;101231.00;;;;4990501;27;106159;-66
2023/09/15 09:35:38;;;;;;;0.43;0.40;;;26.90;55.00;27.60;101226.00;;;;4992103;28;93599;-67
2023/09/15 09:38:04;;;;;;;1.63;0.70;;;27.10;53.80;27.60;101230.00;;;;4969489;28;113312;-66
2023/09/15 09:40:33;;;;;;;0.38;0.35;;;27.10;52.80;27.60;101231.00;;;;4974382;28;110718;-66
2023/09/15 09:42:59;;;;;;;0.93;0.60;;;27.10;52.40;27.60;101234.00;;;;4971541;28;92961;-67
2023/09/15 09:45:29;;;;;;;0.50;0.40;;;27.10;52.60;27.70;101226.00;;;;4990077;28;94856;-67
2023/09/15 09:47:56;;;;;;;0.80;0.63;;;27.10;53.80;28.00;101228.00;;;;4989536;28;94043;-67
2023/09/15 09:50:22;;;;;;;1.63;0.77;;;27.30;53.30;28.10;101223.00;;;;4994556;27;92992;-69
2023/09/15 09:52:50;;;;;;;0.32;0.32;;;27.50;52.30;28.10;101208.00;;;;4993837;28;93343;-67
2023/09/15 09:55:16;;;;;;;1.50;0.80;;;27.50;52.10;28.10;101218.00;;;;4993147;27;93899;-70
2023/09/15 09:57:42;;;;;;;0.63;0.55;;;27.60;51.00;28.10;101218.00;;;;4990484;27;122496;-70
2023/09/15 10:00:17;;;;;;;1.38;0.50;;;27.50;51.10;28.20;101222.00;;;;4971810;28;110137;-69
2023/09/15 10:02:44;;;;;;;10.52;0.65;;;27.50;51.80;28.50;101221.00;;;;4992600;27;94524;-68
2023/09/15 10:05:10;;;;;;;0.35;0.35;;;27.70;52.00;28.70;101213.00;;;;4993377;28;94040;-69
2023/09/15 10:07:36;;;;;;;3.22;0.80;;;27.90;51.20;28.90;101211.00;;;;4990917;27;103766;-68
2023/09/15 10:10:06;;;;;;;1.33;0.88;;;28.10;50.60;29.20;101208.00;;;;4991105;27;94724;-69
2023/09/15 10:12:34;;;;;;;2.05;0.52;;;28.40;50.10;28.90;101210.00;;;;4991932;27;92769;-71
2023/09/15 10:15:06;;;;;;;0.88;0.60;;;28.40;49.00;29.00;101196.00;;;;4987778;27;92889;-69
2023/09/15 10:17:33;;;;;;;1.08;0.95;;;28.30;49.10;29.20;101202.00;;;;4991641;27;93792;-69
2023/09/15 10:19:59;;;;;;;0.60;0.60;;;28.50;48.50;29.30;101200.00;;;;4973181;28;93128;-70
2023/09/15 10:22:25;;;;;;;3.47;0.80;;;28.60;47.60;29.20;101194.00;;;;4975652;28;93079;-68
2023/09/15 10:24:58;;;;;;;0.88;0.50;;;28.60;46.90;29.30;101201.00;;;;4972399;27;122610;-69
2023/09/15 10:27:27;;;;;;;1.80;0.55;;;28.60;47.00;29.30;101195.00;;;;4994560;27;94139;-69
2023/09/15 10:29:52;;;;;;;0.80;0.40;;;28.70;46.20;28.80;101190.00;;;;4992039;27;92968;-70
2023/09/15 10:32:19;;;;;;;1.05;0.50;;;28.50;44.80;28.50;101195.00;;;;4976767;27;107233;-70
2023/09/15 10:34:47;;;;;;;1.05;0.45;;;28.10;45.60;28.30;101190.00;;;;4990417;27;124721;-69
2023/09/15 10:37:13;;;;;;;0.20;0.20;;;27.90;46.40;28.60;101188.00;;;;4991405;27;93062;-70
2023/09/15 10:39:41;;;;;;;0.65;0.43;;;28.00;46.50;28.70;101189.00;;;;4991992;27;109779;-68
2023/09/15 10:42:13;;;;;;;1.55;0.57;;;28.10;46.80;28.90;101187.00;;;;4976395;28;92875;-69
2023/09/15 10:44:42;;;;;;;0.90;0.57;;;28.30;46.90;29.10;101196.00;;;;4989869;28;121511;-69
2023/09/15 10:47:19;;;;;;;1.45;0.50;;;28.40;46.70;29.30;101196.00;;;;4973322;28;92932;-69
2023/09/15 10:49:52;;;;;;;0.85;0.40;;;28.60;46.30;29.20;101189.00;;;;4990398;27;92849;-69
2023/09/15 10:52:32;;;;;;;1.00;0.70;;;28.60;45.90;29.30;101183.00;;;;4990116;27;92068;-69